createdAt,value
2022-09-15T00:01:01.721Z,2.30
2022-09-15T00:03:29.132Z,2.40
2022-09-15T00:05:56.207Z,2.20
2022-09-15T00:08:24.428Z,2.25
2022-09-15T00:10:54.824Z,2.38
2022-09-15T00:13:22.799Z,1.88
2022-09-15T00:15:50.331Z,2.15
2022-09-15T00:18:17.859Z,2.03
2022-09-15T00:20:45.806Z,2.15
2022-09-15T00:23:14.824Z,2.33
2022-09-15T00:25:53.324Z,2.30
2022-09-15T00:28:22.425Z,2.15
2022-09-15T00:30:52.559Z,2.38
2022-09-15T00:33:21.344Z,2.38
2022-09-15T00:35:50.121Z,2.38
2022-09-15T00:38:18.603Z,2.20
2022-09-15T00:40:52.066Z,2.30
2022-09-15T00:43:21.971Z,2.95
2022-09-15T00:45:49.349Z,2.35
2022-09-15T00:48:21.636Z,2.80
2022-09-15T00:50:55.708Z,2.40
2022-09-15T00:53:24.419Z,2.58
2022-09-15T00:55:52.519Z,2.35
2022-09-15T00:58:33.082Z,2.40
2022-09-15T01:01:03.273Z,2.55
2022-09-15T01:03:33.308Z,2.38
2022-09-15T01:06:08.537Z,2.50
2022-09-15T01:08:58.783Z,2.05
2022-09-15T01:11:26.040Z,2.65
2022-09-15T01:13:53.101Z,2.08
2022-09-15T01:16:41.850Z,2.47
2022-09-15T01:19:41.863Z,2.30
2022-09-15T01:22:27.423Z,2.50
2022-09-15T01:25:03.550Z,2.72
2022-09-15T01:27:43.188Z,2.33
2022-09-15T01:30:15.141Z,2.35
2022-09-15T01:33:06.751Z,2.83
2022-09-15T01:35:56.308Z,2.17
2022-09-15T01:38:49.219Z,2.67
2022-09-15T01:41:40.734Z,2.20
2022-09-15T01:44:15.755Z,1.80
2022-09-15T01:46:47.786Z,2.20
2022-09-15T01:49:18.727Z,2.10
2022-09-15T01:51:48.595Z,2.08
2022-09-15T01:54:19.553Z,2.28
2022-09-15T01:56:46.953Z,2.03
2022-09-15T01:59:14.118Z,2.08
2022-09-15T02:01:54.365Z,2.00
2022-09-15T02:04:33.512Z,2.45
2022-09-15T02:07:12.182Z,2.13
2022-09-15T02:10:00.942Z,2.15
2022-09-15T02:12:39.584Z,2.25
2022-09-15T02:15:12.179Z,2.30
2022-09-15T02:17:45.733Z,2.27
2022-09-15T02:20:33.206Z,1.95
2022-09-15T02:23:09.731Z,2.20
2022-09-15T02:25:51.708Z,2.47
2022-09-15T02:28:25.707Z,2.15
2022-09-15T02:30:55.459Z,2.42
2022-09-15T02:33:25.022Z,2.00
2022-09-15T02:35:53.040Z,1.98
2022-09-15T02:38:20.449Z,2.05
2022-09-15T02:40:48.179Z,2.13
2022-09-15T02:43:17.874Z,1.73
2022-09-15T02:45:45.989Z,1.80
2022-09-15T02:48:13.609Z,1.75
2022-09-15T02:50:41.365Z,1.92
2022-09-15T02:53:09.018Z,2.13
2022-09-15T02:55:36.304Z,1.58
2022-09-15T02:58:03.917Z,1.90
2022-09-15T03:00:31.766Z,1.50
2022-09-15T03:02:58.883Z,1.52
2022-09-15T03:05:28.893Z,2.17
2022-09-15T03:07:57.249Z,1.70
2022-09-15T03:10:25.220Z,1.80
2022-09-15T03:12:53.813Z,1.88
2022-09-15T03:15:23.647Z,1.50
2022-09-15T03:17:51.394Z,1.60
2022-09-15T03:20:23.812Z,2.00
2022-09-15T03:22:51.307Z,1.60
2022-09-15T03:25:18.909Z,1.90
2022-09-15T03:27:46.171Z,1.63
2022-09-15T03:30:14.303Z,1.70
2022-09-15T03:32:41.492Z,2.10
2022-09-15T03:35:09.044Z,2.10
2022-09-15T03:37:36.437Z,1.90
2022-09-15T03:40:04.055Z,1.65
2022-09-15T03:42:31.472Z,1.70
2022-09-15T03:44:58.613Z,1.83
2022-09-15T03:47:25.972Z,1.63
2022-09-15T03:49:53.044Z,2.00
2022-09-15T03:52:20.090Z,2.10
2022-09-15T03:54:48.887Z,2.13
2022-09-15T03:57:16.044Z,2.20
2022-09-15T03:59:43.192Z,2.45
2022-09-15T04:02:10.261Z,1.42
2022-09-15T04:04:37.373Z,1.92
2022-09-15T04:07:04.593Z,1.73
2022-09-15T04:09:31.774Z,1.80
2022-09-15T04:11:58.800Z,1.95
2022-09-15T04:14:25.983Z,1.90
2022-09-15T04:16:53.077Z,2.15
2022-09-15T04:19:20.344Z,2.42
2022-09-15T04:21:48.211Z,2.00
2022-09-15T04:24:15.840Z,2.33
2022-09-15T04:26:42.952Z,2.05
2022-09-15T04:29:16.477Z,2.58
2022-09-15T04:31:43.900Z,2.38
2022-09-15T04:34:11.029Z,2.28
2022-09-15T04:36:38.414Z,2.60
2022-09-15T04:39:06.770Z,2.53
2022-09-15T04:41:34.067Z,2.75
2022-09-15T04:44:01.467Z,3.13
2022-09-15T04:46:28.545Z,3.33
2022-09-15T04:48:56.512Z,3.53
2022-09-15T04:51:24.505Z,3.45
2022-09-15T04:53:52.234Z,3.20
2022-09-15T04:56:22.053Z,3.42
2022-09-15T04:59:03.188Z,3.28
2022-09-15T05:01:34.589Z,3.80
2022-09-15T05:04:04.175Z,4.30
2022-09-15T05:06:32.276Z,4.18
2022-09-15T05:08:59.349Z,4.30
2022-09-15T05:11:27.274Z,4.22
2022-09-15T05:13:55.083Z,5.75
2022-09-15T05:16:25.067Z,4.75
2022-09-15T05:18:54.076Z,5.32
2022-09-15T05:21:23.102Z,5.00
2022-09-15T05:23:52.129Z,5.93
2022-09-15T05:26:22.695Z,5.60
2022-09-15T05:28:50.289Z,6.32
2022-09-15T05:31:25.878Z,5.20
2022-09-15T05:33:53.746Z,5.28
2022-09-15T05:36:25.263Z,26.80
2022-09-15T05:38:54.301Z,7.38
2022-09-15T05:41:21.597Z,6.50
2022-09-15T05:43:50.882Z,5.13
2022-09-15T05:46:19.462Z,5.60
2022-09-15T05:48:47.187Z,5.15
2022-09-15T05:51:14.876Z,6.10
2022-09-15T05:53:42.491Z,5.88
2022-09-15T05:56:14.727Z,4.97
2022-09-15T05:58:43.868Z,4.50
2022-09-15T06:01:20.719Z,4.63
2022-09-15T06:03:48.833Z,5.22
2022-09-15T06:06:16.060Z,5.80
2022-09-15T06:08:47.976Z,4.80
2022-09-15T06:11:18.050Z,3.95
2022-09-15T06:13:46.794Z,4.05
2022-09-15T06:16:18.396Z,4.05
2022-09-15T06:18:46.918Z,4.32
2022-09-15T06:21:28.101Z,4.97
2022-09-15T06:23:57.505Z,5.28
2022-09-15T06:26:27.390Z,6.20
2022-09-15T06:28:58.808Z,4.82
2022-09-15T06:31:28.279Z,4.85
2022-09-15T06:33:57.853Z,4.72
2022-09-15T06:36:27.541Z,4.40
2022-09-15T06:38:55.171Z,6.35
2022-09-15T06:41:22.575Z,6.18
2022-09-15T06:43:49.916Z,5.45
2022-09-15T06:46:20.008Z,4.68
2022-09-15T06:48:48.763Z,3.90
2022-09-15T06:51:17.976Z,5.03
2022-09-15T06:53:46.231Z,3.22
2022-09-15T06:56:21.780Z,3.33
2022-09-15T06:58:49.427Z,3.08
2022-09-15T07:01:28.143Z,3.22
2022-09-15T07:03:58.456Z,2.75
2022-09-15T07:06:28.886Z,3.00
2022-09-15T07:08:56.762Z,2.80
2022-09-15T07:11:24.401Z,2.63
2022-09-15T07:13:52.320Z,2.47
2022-09-15T07:16:20.759Z,2.83
2022-09-15T07:18:49.252Z,2.40
2022-09-15T07:21:18.621Z,3.40
2022-09-15T07:23:47.054Z,3.25
2022-09-15T07:26:23.096Z,3.08
2022-09-15T07:28:54.393Z,2.85
2022-09-15T07:31:23.680Z,2.45
2022-09-15T07:33:51.466Z,2.08
2022-09-15T07:36:18.637Z,2.42
2022-09-15T07:38:48.453Z,2.10
2022-09-15T07:41:27.062Z,2.45
2022-09-15T07:43:58.515Z,1.95
2022-09-15T07:46:27.377Z,2.00
2022-09-15T07:48:56.611Z,1.85
2022-09-15T07:51:25.176Z,2.10
2022-09-15T07:53:53.419Z,1.70
2022-09-15T07:56:21.646Z,1.77
2022-09-15T07:58:49.900Z,1.80
2022-09-15T08:01:19.095Z,1.77
2022-09-15T08:03:49.123Z,2.50
2022-09-15T08:06:21.836Z,1.58
2022-09-15T08:08:50.307Z,1.80
2022-09-15T08:11:19.282Z,1.52
2022-09-15T08:13:47.804Z,1.50
2022-09-15T08:16:18.146Z,1.90
2022-09-15T08:18:45.576Z,1.90
2022-09-15T08:21:20.416Z,1.60
2022-09-15T08:23:56.188Z,1.83
2022-09-15T08:26:24.166Z,1.65
2022-09-15T08:28:51.366Z,2.30
2022-09-15T08:31:18.596Z,1.95
2022-09-15T08:33:50.952Z,1.70
2022-09-15T08:36:18.574Z,1.65
2022-09-15T08:38:46.081Z,1.67
2022-09-15T08:41:24.568Z,1.90
2022-09-15T08:43:58.544Z,1.65
2022-09-15T08:46:51.844Z,1.40
2022-09-15T08:49:47.432Z,1.50
2022-09-15T08:52:30.747Z,1.45
2022-09-15T08:55:01.132Z,2.22
2022-09-15T08:57:28.379Z,1.60
2022-09-15T08:59:55.667Z,1.73
2022-09-15T09:02:49.201Z,1.83
2022-09-15T09:05:29.521Z,1.80
2022-09-15T09:08:27.144Z,1.27
2022-09-15T09:11:11.332Z,1.52
2022-09-15T09:14:09.817Z,2.45
2022-09-15T09:16:58.380Z,1.60
2022-09-15T09:19:46.568Z,1.67
2022-09-15T09:22:21.986Z,1.90
2022-09-15T09:24:53.438Z,1.48
2022-09-15T09:27:25.084Z,1.83
2022-09-15T09:30:02.680Z,1.58
2022-09-15T09:32:41.084Z,1.60
2022-09-15T09:35:34.697Z,1.50
2022-09-15T09:38:02.598Z,1.60
2022-09-15T09:40:31.760Z,1.50
2022-09-15T09:43:01.102Z,1.38
2022-09-15T09:45:28.256Z,1.30
2022-09-15T09:48:02.324Z,1.73
2022-09-15T09:50:39.089Z,1.70
2022-09-15T09:53:33.055Z,1.58
2022-09-15T09:56:13.150Z,1.38
2022-09-15T09:58:40.225Z,1.67
2022-09-15T10:01:19.636Z,1.52
2022-09-15T10:03:46.938Z,1.50
2022-09-15T10:06:17.474Z,1.50
2022-09-15T10:09:00.189Z,1.60
2022-09-15T10:11:46.853Z,1.45
2022-09-15T10:14:36.481Z,2.13
2022-09-15T10:17:09.686Z,1.42
2022-09-15T10:22:33.019Z,1.75
2022-09-15T10:25:02.128Z,1.80
2022-09-15T10:27:36.967Z,1.98
2022-09-15T10:30:24.668Z,1.50
2022-09-15T10:32:51.808Z,1.10
2022-09-15T10:35:20.780Z,1.50
2022-09-15T10:38:12.111Z,1.67
2022-09-15T10:40:52.125Z,1.52
2022-09-15T10:43:52.924Z,1.50
2022-09-15T10:46:45.145Z,1.85
2022-09-15T10:49:34.824Z,1.70
2022-09-15T10:52:11.750Z,1.50
2022-09-15T10:54:57.619Z,1.77
2022-09-15T10:57:24.832Z,1.42
2022-09-15T11:00:10.282Z,1.98
2022-09-15T11:03:09.802Z,1.65
2022-09-15T11:05:42.673Z,1.95
2022-09-15T11:08:40.035Z,2.15
2022-09-15T11:11:16.120Z,1.40
2022-09-15T11:13:58.989Z,1.70
2022-09-15T11:16:44.113Z,1.98
2022-09-15T11:19:48.275Z,1.63
2022-09-15T11:22:24.765Z,1.38
2022-09-15T11:24:58.836Z,1.30
2022-09-15T11:27:40.100Z,1.60
2022-09-15T11:30:22.192Z,2.15
2022-09-15T11:33:02.524Z,2.53
2022-09-15T11:35:50.359Z,1.55
2022-09-15T11:38:18.263Z,2.33
2022-09-15T11:40:52.081Z,2.70
2022-09-15T11:43:30.080Z,2.00
2022-09-15T11:45:59.615Z,1.83
2022-09-15T11:48:55.478Z,1.70
2022-09-15T11:51:25.603Z,1.70
2022-09-15T11:54:06.229Z,1.70
2022-09-15T11:56:46.669Z,1.70
2022-09-15T11:59:28.853Z,1.80
2022-09-15T12:02:05.813Z,1.48
2022-09-15T12:04:57.961Z,2.20
2022-09-15T12:07:30.950Z,1.50
2022-09-15T12:10:14.376Z,1.95
2022-09-15T12:12:43.964Z,1.75
2022-09-15T12:15:16.700Z,1.60
2022-09-15T12:17:52.456Z,1.50
2022-09-15T12:20:32.424Z,1.48
2022-09-15T12:23:16.436Z,1.60
2022-09-15T12:25:46.576Z,1.80
2022-09-15T12:28:22.871Z,1.60
2022-09-15T12:31:10.953Z,1.30
2022-09-15T12:33:45.164Z,1.52
2022-09-15T12:36:37.178Z,1.40
2022-09-15T12:39:29.988Z,1.70
2022-09-15T12:42:10.829Z,2.00
2022-09-15T12:44:40.748Z,1.65
2022-09-15T12:47:22.721Z,1.45
2022-09-15T12:49:52.867Z,1.48
2022-09-15T12:52:22.607Z,1.65
2022-09-15T12:54:56.771Z,1.90
2022-09-15T12:57:29.357Z,2.20
2022-09-15T13:00:22.475Z,2.13
2022-09-15T13:02:53.014Z,2.20
2022-09-15T13:05:41.995Z,2.35
2022-09-15T13:08:34.757Z,2.65
2022-09-15T13:11:34.885Z,1.97
2022-09-15T13:14:07.951Z,1.95
2022-09-15T13:16:45.754Z,2.25
2022-09-15T13:19:18.751Z,2.10
2022-09-15T13:22:10.952Z,1.67
2022-09-15T13:24:47.040Z,1.75
2022-09-15T13:27:19.286Z,1.58
2022-09-15T13:29:50.947Z,1.70
2022-09-15T13:32:48.512Z,1.67
2022-09-15T13:35:41.659Z,1.23
2022-09-15T13:38:19.951Z,2.03
2022-09-15T13:41:24.372Z,1.60
2022-09-15T13:44:06.054Z,1.73
2022-09-15T13:46:42.018Z,1.60
2022-09-15T13:49:12.460Z,1.50
2022-09-15T13:51:43.980Z,1.73
2022-09-15T13:54:19.616Z,1.60
2022-09-15T13:56:53.293Z,1.60
2022-09-15T13:59:28.229Z,1.80
2022-09-15T14:01:56.969Z,1.60
2022-09-15T14:04:28.067Z,1.80
2022-09-15T14:07:00.211Z,1.98
2022-09-15T14:09:38.715Z,1.90
2022-09-15T14:12:12.165Z,13.20
2022-09-15T14:14:47.100Z,2.53
2022-09-15T14:17:30.300Z,1.77
2022-09-15T14:20:01.479Z,1.83
2022-09-15T14:22:33.944Z,1.58
2022-09-15T14:25:08.237Z,2.00
2022-09-15T14:27:36.732Z,54.60
2022-09-15T14:30:07.633Z,10.70
2022-09-15T14:32:44.038Z,2.13
2022-09-15T14:35:19.769Z,1.85
2022-09-15T14:37:57.008Z,1.85
2022-09-15T14:40:38.462Z,2.10
2022-09-15T14:43:25.891Z,2.25
2022-09-15T14:45:56.676Z,1.80
2022-09-15T14:48:28.353Z,2.53
2022-09-15T14:51:03.437Z,2.63
2022-09-15T14:53:35.493Z,2.40
2022-09-15T14:56:08.713Z,2.22
2022-09-15T15:01:15.922Z,2.40
2022-09-15T15:03:49.651Z,1.85
2022-09-15T15:06:35.077Z,2.47
2022-09-15T15:09:22.513Z,2.10
2022-09-15T15:11:58.747Z,2.45
2022-09-15T15:14:26.198Z,3.00
2022-09-15T15:17:02.564Z,2.00
2022-09-15T15:19:35.467Z,2.40
2022-09-15T15:22:11.904Z,2.60
2022-09-15T15:24:44.994Z,3.35
2022-09-15T15:29:52.997Z,3.08
2022-09-15T15:32:22.405Z,3.05
2022-09-15T15:35:01.416Z,2.88
2022-09-15T15:37:34.078Z,3.28
2022-09-15T15:40:08.121Z,2.97
2022-09-15T15:42:35.465Z,3.80
2022-09-15T15:45:23.110Z,37.28
2022-09-15T15:47:50.339Z,5.28
2022-09-15T15:50:26.268Z,6.53
2022-09-15T15:52:53.392Z,7.30
2022-09-15T15:55:26.951Z,8.55
2022-09-15T15:57:56.030Z,8.55
2022-09-15T16:00:36.863Z,5.45
2022-09-15T16:03:05.335Z,4.30
2022-09-15T16:05:34.084Z,4.32
2022-09-15T16:08:07.484Z,2.85
2022-09-15T16:10:40.438Z,4.13
2022-09-15T16:13:07.616Z,6.53
2022-09-15T16:15:34.833Z,3.63
2022-09-15T16:18:01.964Z,4.18
2022-09-15T16:20:30.681Z,3.97
2022-09-15T16:22:57.863Z,4.63
2022-09-15T16:25:34.301Z,4.38
2022-09-15T16:28:02.792Z,3.13
2022-09-15T16:30:30.389Z,2.50
2022-09-15T16:32:57.706Z,2.00
2022-09-15T16:35:33.675Z,1.98
2022-09-15T16:38:01.049Z,2.20
2022-09-15T16:40:28.586Z,2.30
2022-09-15T16:42:55.684Z,1.80
2022-09-15T16:45:43.497Z,1.65
2022-09-15T16:48:11.270Z,2.20
2022-09-15T16:50:42.632Z,1.45
2022-09-15T16:53:18.879Z,1.80
2022-09-15T16:55:51.646Z,2.10
2022-09-15T16:58:20.311Z,1.92
2022-09-15T17:00:50.090Z,16.70
2022-09-15T17:03:19.618Z,4.68
2022-09-15T17:05:58.900Z,18.52
2022-09-15T17:08:29.677Z,13.88
2022-09-15T17:10:58.585Z,1.42
2022-09-15T17:13:30.316Z,1.67
2022-09-15T17:15:59.271Z,1.50
2022-09-15T17:18:27.519Z,2.00
2022-09-15T17:20:54.807Z,1.33
2022-09-15T17:23:37.084Z,1.38
2022-09-15T17:26:12.125Z,1.83
2022-09-15T17:28:39.704Z,1.75
2022-09-15T17:31:13.389Z,2.05
2022-09-15T17:33:40.847Z,1.73
2022-09-15T17:36:08.468Z,1.50
2022-09-15T17:38:35.753Z,1.70
2022-09-15T17:41:03.211Z,1.88
2022-09-15T17:43:31.386Z,1.30
2022-09-15T17:45:58.847Z,2.00
2022-09-15T17:48:26.236Z,1.20
2022-09-15T17:50:53.333Z,1.40
2022-09-15T17:53:22.872Z,1.58
2022-09-15T17:55:50.940Z,14.98
2022-09-15T17:58:18.886Z,19.58
2022-09-15T18:00:47.756Z,8.02
2022-09-15T18:03:18.099Z,1.58
2022-09-15T18:05:45.410Z,1.80
2022-09-15T18:08:13.084Z,12.35
2022-09-15T18:10:40.261Z,98.85
2022-09-15T18:13:07.571Z,90.45
2022-09-15T18:15:35.288Z,97.22
2022-09-15T18:18:08.477Z,106.10
2022-09-15T18:23:04.045Z,9.35
2022-09-15T18:25:34.628Z,5.35
2022-09-15T18:28:03.053Z,2.92
2022-09-15T18:30:33.123Z,2.88
2022-09-15T18:33:00.245Z,2.97
2022-09-15T18:35:27.420Z,3.13
2022-09-15T18:37:57.812Z,2.17
2022-09-15T18:40:27.090Z,3.20
2022-09-15T18:42:56.565Z,3.25
2022-09-15T18:45:23.717Z,3.78
2022-09-15T18:47:52.328Z,3.67
2022-09-15T18:50:22.287Z,3.45
2022-09-15T18:52:50.213Z,3.00
2022-09-15T18:55:22.519Z,3.85
2022-09-15T18:57:49.790Z,3.95
2022-09-15T19:00:20.484Z,2.65
2022-09-15T19:02:47.890Z,2.08
2022-09-15T19:05:16.764Z,2.38
2022-09-15T19:07:45.436Z,2.05
2022-09-15T19:10:14.719Z,4.78
2022-09-15T19:12:42.057Z,1.88
2022-09-15T19:15:11.540Z,2.60
2022-09-15T19:17:39.600Z,1.88
2022-09-15T19:20:09.117Z,2.05
2022-09-15T19:22:36.657Z,2.05
2022-09-15T19:25:05.757Z,2.35
2022-09-15T19:27:32.855Z,2.22
2022-09-15T19:30:00.639Z,2.20
2022-09-15T19:32:27.919Z,2.13
2022-09-15T19:34:55.007Z,23.90
2022-09-15T19:37:23.411Z,14.77
2022-09-15T19:39:50.755Z,4.47
2022-09-15T19:42:18.037Z,2.47
2022-09-15T19:44:45.268Z,3.88
2022-09-15T19:47:12.453Z,2.30
2022-09-15T19:49:39.527Z,2.58
2022-09-15T19:52:06.661Z,2.03
2022-09-15T19:54:34.695Z,2.22
2022-09-15T19:57:02.346Z,1.70
2022-09-15T19:59:48.320Z,2.00
2022-09-15T20:02:15.664Z,3.17
2022-09-15T20:04:43.289Z,3.03
2022-09-15T20:07:10.609Z,2.70
2022-09-15T20:09:39.527Z,2.50
2022-09-15T20:12:07.044Z,2.78
2022-09-15T20:14:34.386Z,3.10
2022-09-15T20:17:02.019Z,2.47
2022-09-15T20:19:30.045Z,2.60
2022-09-15T20:21:57.280Z,1.80
2022-09-15T20:24:25.035Z,2.50
2022-09-15T20:26:52.313Z,2.22
2022-09-15T20:29:20.501Z,1.65
2022-09-15T20:31:47.748Z,1.92
2022-09-15T20:34:15.348Z,1.50
2022-09-15T20:36:42.646Z,1.60
2022-09-15T20:39:13.506Z,1.92
2022-09-15T20:41:45.108Z,1.67
2022-09-15T20:44:12.639Z,1.83
2022-09-15T20:46:40.003Z,1.75
2022-09-15T20:49:07.221Z,1.75
2022-09-15T20:51:34.816Z,1.85
2022-09-15T20:54:04.411Z,1.77
2022-09-15T20:56:35.092Z,1.90
2022-09-15T20:59:04.501Z,1.48
2022-09-15T21:01:37.198Z,1.90
2022-09-15T21:04:06.083Z,1.70
2022-09-15T21:06:34.097Z,1.75
2022-09-15T21:09:01.371Z,1.65
2022-09-15T21:11:30.216Z,1.60
2022-09-15T21:13:57.636Z,1.73
2022-09-15T21:16:27.950Z,1.63
2022-09-15T21:18:57.505Z,1.70
2022-09-15T21:21:30.306Z,1.75
2022-09-15T21:24:01.848Z,2.00
2022-09-15T21:26:31.238Z,1.80
2022-09-15T21:28:58.747Z,1.70
2022-09-15T21:31:31.098Z,1.50
2022-09-15T21:33:59.321Z,1.60
2022-09-15T21:36:29.828Z,2.05
2022-09-15T21:38:58.402Z,1.70
2022-09-15T21:41:29.976Z,1.50
2022-09-15T21:43:58.477Z,1.77
2022-09-15T21:46:28.097Z,1.40
2022-09-15T21:48:57.609Z,1.90
2022-09-15T21:51:26.887Z,1.80
2022-09-15T21:53:55.763Z,1.63
2022-09-15T21:56:24.008Z,1.50
2022-09-15T21:58:51.293Z,1.67
2022-09-15T22:01:23.903Z,1.73
2022-09-15T22:03:53.367Z,1.77
2022-09-15T22:06:22.677Z,1.90
2022-09-15T22:08:49.930Z,1.80
2022-09-15T22:11:17.077Z,1.50
2022-09-15T22:13:44.855Z,1.88
2022-09-15T22:16:23.533Z,1.70
2022-09-15T22:18:51.277Z,1.80
2022-09-15T22:21:19.759Z,1.77
2022-09-15T22:23:48.956Z,1.80
2022-09-15T22:26:21.619Z,1.73
2022-09-15T22:28:49.070Z,2.00
2022-09-15T22:31:18.691Z,2.53
2022-09-15T22:33:46.516Z,1.90
2022-09-15T22:36:27.936Z,2.20
2022-09-15T22:38:56.666Z,1.90
2022-09-15T22:41:27.381Z,2.50
2022-09-15T22:43:54.520Z,1.73
2022-09-15T22:46:21.870Z,2.05
2022-09-15T22:48:49.923Z,1.65
2022-09-15T22:51:17.194Z,2.08
2022-09-15T22:53:44.343Z,1.98
2022-09-15T22:56:19.957Z,1.90
2022-09-15T22:58:49.691Z,2.30
2022-09-15T23:01:20.252Z,1.40
2022-09-15T23:03:51.828Z,1.80
2022-09-15T23:06:20.210Z,1.83
2022-09-15T23:08:55.378Z,1.60
2022-09-15T23:11:23.442Z,1.60
2022-09-15T23:13:50.579Z,1.55
2022-09-15T23:16:17.845Z,2.03
2022-09-15T23:18:45.459Z,1.92
2022-09-15T23:21:13.620Z,2.28
2022-09-15T23:23:43.329Z,2.13
2022-09-15T23:26:12.408Z,1.70
2022-09-15T23:28:39.972Z,1.60
2022-09-15T23:31:10.103Z,2.30
2022-09-15T23:33:37.870Z,1.42
2022-09-15T23:36:07.633Z,2.13
2022-09-15T23:38:39.995Z,1.88
2022-09-15T23:41:08.286Z,1.80
2022-09-15T23:43:35.951Z,1.63
2022-09-15T23:46:04.301Z,2.05
2022-09-15T23:48:34.648Z,1.85
2022-09-15T23:51:02.050Z,1.90
2022-09-15T23:53:29.972Z,1.60
2022-09-15T23:55:57.193Z,1.88
2022-09-15T23:58:24.846Z,1.90
